Time;durP1;ratioP1;P1;durP2;ratioP2;P2;SDS_P1;SDS_P2;PMS_P1;PMS_P2;Temp;Humidity;BMP_temperature;BMP_pressure;BME280_temperature;BME280_humidity;BME280_pressure;Samples;Min_cycle;Max_cycle;Signal;HPM_P1;HPM_P2
2023/10/26 00:00:05;;;;;;;2.65;1.80;;;20.40;81.20;;;;;;4975797;28;20046;-27
2023/10/26 00:02:33;;;;;;;2.72;1.80;;;19.40;71.10;;;;;;4975578;28;20440;-27
2023/10/26 00:05:00;;;;;;;2.20;1.80;;;;;;;;;;4975779;28;20381;-27
2023/10/26 00:07:27;;;;;;;2.72;1.98;;;;;;;;;;4975529;28;20047;-27
2023/10/26 00:09:54;;;;;;;1.92;1.70;;;;;;;;;;4975639;28;20496;-27
2023/10/26 00:12:21;;;;;;;2.08;1.80;;;;;;;;;;4975594;28;20106;-27
2023/10/26 00:14:48;;;;;;;2.42;1.80;;;;;;;;;;4974237;28;20050;-27
2023/10/26 00:17:16;;;;;;;2.30;2.10;;;19.70;65.30;;;;;;4975272;28;20082;-26
2023/10/26 00:19:43;;;;;;;2.75;2.10;;;19.50;80.10;;;;;;4975271;28;20114;-27
2023/10/26 00:22:10;;;;;;;2.88;2.33;;;;;;;;;;4975279;28;20078;-26
2023/10/26 00:24:38;;;;;;;2.10;1.90;;;;;;;;;;4974393;28;20105;-27
2023/10/26 00:27:05;;;;;;;2.28;2.03;;;19.10;80.20;;;;;;4984312;28;20515;-27
2023/10/26 00:29:32;;;;;;;4.05;2.40;;;19.20;80.80;;;;;;4994262;28;20104;-27
2023/10/26 00:31:59;;;;;;;2.33;2.00;;;;;;;;;;4980498;28;20050;-27
2023/10/26 00:34:27;;;;;;;2.38;2.10;;;19.70;80.20;;;;;;4975069;28;20054;-27
2023/10/26 00:36:54;;;;;;;3.38;2.00;;;19.10;80.00;;;;;;4973552;28;20101;-27
2023/10/26 00:39:21;;;;;;;3.35;2.30;;;;;;;;;;4974609;28;20050;-26
2023/10/26 00:41:50;;;;;;;3.25;2.35;;;20.20;80.50;;;;;;4974987;28;20555;-27
2023/10/26 00:44:17;;;;;;;3.47;2.53;;;20.80;80.90;;;;;;4974909;28;20182;-27
2023/10/26 00:46:44;;;;;;;2.63;2.33;;;19.60;80.30;;;;;;4975064;28;20137;-27
2023/10/26 00:49:15;;;;;;;2.50;2.25;;;;;;;;;;4974564;28;20121;-26
2023/10/26 00:51:43;;;;;;;3.10;2.42;;;19.70;80.40;;;;;;4974820;28;20057;-27
2023/10/26 00:54:10;;;;;;;2.92;2.45;;;;;;;;;;4974672;28;20534;-27
2023/10/26 00:56:37;;;;;;;2.67;2.22;;;;;;;;;;4974416;28;20079;-27
2023/10/26 00:59:04;;;;;;;2.92;2.58;;;20.10;64.90;;;;;;4974491;28;20154;-27
2023/10/26 01:01:31;;;;;;;2.97;2.50;;;;;;;;;;4974550;28;20488;-26
2023/10/26 01:03:58;;;;;;;2.97;2.53;;;20.10;80.60;;;;;;4974643;28;20050;-27
2023/10/26 01:06:25;;;;;;;2.88;2.55;;;19.70;68.10;;;;;;4974473;28;20055;-27
2023/10/26 01:08:53;;;;;;;2.92;2.60;;;20.00;68.40;;;;;;4974154;28;20047;-27
2023/10/26 01:11:20;;;;;;;3.95;3.10;;;20.10;69.20;;;;;;4974602;28;20097;-27
2023/10/26 01:13:47;;;;;;;3.20;2.88;;;19.30;68.90;;;;;;4974298;28;20093;-27
2023/10/26 01:16:14;;;;;;;3.20;2.70;;;;;;;;;;4974306;28;20097;-26
2023/10/26 01:18:41;;;;;;;3.05;2.70;;;19.20;80.70;;;;;;4973959;28;20508;-25
2023/10/26 01:21:08;;;;;;;3.35;2.80;;;;;;;;;;4974190;28;20496;-27
2023/10/26 01:23:36;;;;;;;3.53;2.92;;;19.60;80.50;;;;;;4974366;28;20050;-25
2023/10/26 01:26:03;;;;;;;3.20;2.90;;;19.60;81.00;;;;;;4974880;28;20089;-25
2023/10/26 01:28:30;;;;;;;3.75;3.00;;;;;;;;;;4993472;28;20046;-25
2023/10/26 01:30:57;;;;;;;4.55;3.25;;;19.80;80.50;;;;;;4987586;28;20102;-25
2023/10/26 01:33:24;;;;;;;3.75;3.30;;;;;;;;;;4973931;28;20046;-26
2023/10/26 01:35:51;;;;;;;4.07;3.25;;;19.40;80.40;;;;;;4973259;28;20073;-25
2023/10/26 01:38:18;;;;;;;3.85;3.05;;;;;;;;;;4973531;28;20089;-27
2023/10/26 01:40:48;;;;;;;5.03;3.33;;;19.70;80.60;;;;;;4974111;28;20055;-25
2023/10/26 01:43:15;;;;;;;3.60;3.30;;;19.70;81.00;;;;;;4973798;28;20137;-25
2023/10/26 01:45:42;;;;;;;3.75;3.22;;;19.80;80.90;;;;;;4973869;28;20097;-25
2023/10/26 01:48:09;;;;;;;4.55;3.40;;;19.20;64.00;;;;;;4973660;28;20053;-25
2023/10/26 01:50:35;;;;;;;4.03;3.47;;;19.10;80.40;;;;;;4973589;28;20050;-25
2023/10/26 01:53:02;;;;;;;4.00;3.38;;;20.00;64.10;;;;;;4973684;28;20055;-25
2023/10/26 01:55:29;;;;;;;4.55;3.42;;;19.60;65.10;;;;;;4973701;28;20050;-25
2023/10/26 01:57:57;;;;;;;4.10;3.53;;;19.90;80.80;;;;;;4973442;28;20051;-25
2023/10/26 02:00:24;;;;;;;4.20;3.40;;;19.60;80.80;;;;;;4973180;28;20101;-25
2023/10/26 02:02:51;;;;;;;4.78;3.40;;;;;;;;;;4973382;28;20562;-27
2023/10/26 02:05:18;;;;;;;4.35;3.70;;;19.70;80.90;;;;;;4973767;28;20134;-25
2023/10/26 02:07:45;;;;;;;3.90;3.40;;;;;;;;;;4973507;28;20051;-25
2023/10/26 02:10:14;;;;;;;3.58;3.28;;;20.00;81.80;;;;;;4973380;28;20054;-25
2023/10/26 02:12:41;;;;;;;3.88;3.47;;;18.50;80.20;;;;;;4973093;28;20082;-25
2023/10/26 02:15:11;;;;;;;4.20;3.47;;;19.40;71.10;;;;;;4973306;28;20054;-25
2023/10/26 02:17:38;;;;;;;3.75;3.38;;;20.30;77.20;;;;;;4973195;28;20051;-25
2023/10/26 02:20:05;;;;;;;4.00;3.60;;;19.00;81.40;;;;;;4973411;28;20047;-25
2023/10/26 02:22:32;;;;;;;4.20;3.80;;;19.70;80.90;;;;;;4973329;28;20050;-25
2023/10/26 02:24:59;;;;;;;3.83;3.42;;;19.70;81.00;;;;;;4973159;28;20047;-25
2023/10/26 02:27:26;;;;;;;4.07;3.60;;;;;;;;;;4985025;28;20089;-26
2023/10/26 02:29:53;;;;;;;5.25;3.70;;;19.10;81.00;;;;;;4992271;28;20108;-25
2023/10/26 02:32:21;;;;;;;4.28;3.85;;;19.40;62.10;;;;;;4975355;28;20078;-27
2023/10/26 02:34:48;;;;;;;3.88;3.40;;;;;;;;;;4973160;28;20051;-26
2023/10/26 02:37:15;;;;;;;4.05;3.55;;;19.40;80.80;;;;;;4972438;28;20082;-25
2023/10/26 02:39:42;;;;;;;4.20;3.75;;;19.50;81.00;;;;;;4972919;28;20141;-25
2023/10/26 02:42:09;;;;;;;4.60;3.70;;;19.30;74.40;;;;;;4973081;28;20042;-25
2023/10/26 02:44:35;;;;;;;3.88;3.53;;;19.60;81.30;;;;;;4972547;28;20047;-25
2023/10/26 02:47:02;;;;;;;4.20;3.80;;;;;;;;;;4975088;28;20055;-27
2023/10/26 02:49:31;;;;;;;3.97;3.58;;;19.60;81.40;;;;;;4979337;28;20058;-25
2023/10/26 02:51:58;;;;;;;4.20;3.80;;;;;;;;;;4979566;28;20066;-25
2023/10/26 02:54:26;;;;;;;4.18;3.78;;;18.90;74.90;;;;;;4979233;28;20484;-25
2023/10/26 02:56:53;;;;;;;4.38;3.45;;;19.40;81.30;;;;;;4979113;28;20485;-25
2023/10/26 02:59:20;;;;;;;5.82;3.70;;;18.90;81.20;;;;;;4978862;28;20550;-25
2023/10/26 03:01:47;;;;;;;4.60;3.78;;;;;;;;;;4979548;28;20054;-26
2023/10/26 03:04:14;;;;;;;4.05;3.67;;;19.30;70.40;;;;;;4979276;28;20046;-25
2023/10/26 03:06:42;;;;;;;4.47;3.75;;;19.30;62.20;;;;;;4979473;28;20050;-27
2023/10/26 03:09:09;;;;;;;4.95;3.95;;;;;;;;;;4978820;28;20141;-27
2023/10/26 03:11:36;;;;;;;5.00;3.95;;;;;;;;;;4978986;28;20043;-25
2023/10/26 03:14:04;;;;;;;4.10;3.70;;;;;;;;;;4979064;28;20058;-25
2023/10/26 03:16:31;;;;;;;3.80;3.50;;;18.20;80.70;;;;;;4979135;28;20051;-25
2023/10/26 03:18:58;;;;;;;4.10;3.70;;;;;;;;;;4978955;28;20093;-25
2023/10/26 03:21:24;;;;;;;4.70;4.10;;;19.80;81.60;;;;;;4979195;28;20051;-25
2023/10/26 03:23:53;;;;;;;4.38;3.65;;;19.20;62.20;;;;;;4978941;28;20455;-27
2023/10/26 03:26:20;;;;;;;4.13;3.72;;;20.30;71.70;;;;;;4981979;28;20084;-25
2023/10/26 03:28:47;;;;;;;3.95;3.55;;;19.80;72.00;;;;;;4998468;28;20487;-25
2023/10/26 03:31:14;;;;;;;4.38;3.90;;;;;;;;;;4990155;28;20089;-25
2023/10/26 03:33:41;;;;;;;4.38;3.90;;;19.60;81.30;;;;;;4978979;28;20050;-25
2023/10/26 03:36:13;;;;;;;5.20;3.88;;;18.90;73.20;;;;;;4978473;28;20136;-25
2023/10/26 03:38:40;;;;;;;4.03;3.63;;;;;;;;;;4978750;28;20520;-27
2023/10/26 03:41:08;;;;;;;4.43;4.03;;;20.20;69.90;;;;;;4979224;28;20101;-25
2023/10/26 03:43:35;;;;;;;4.68;3.80;;;19.90;81.90;;;;;;4978817;28;20093;-25
2023/10/26 03:46:02;;;;;;;4.47;3.90;;;19.10;82.00;;;;;;4978819;28;20047;-25
2023/10/26 03:48:29;;;;;;;4.30;3.90;;;19.40;81.60;;;;;;4978787;28;20113;-25
2023/10/26 03:50:56;;;;;;;4.40;4.00;;;19.60;81.80;;;;;;4979101;28;20082;-25
2023/10/26 03:53:22;;;;;;;4.05;3.65;;;18.80;69.70;;;;;;4978477;28;20046;-25
2023/10/26 03:55:49;;;;;;;4.20;3.80;;;18.70;81.70;;;;;;4979052;28;20139;-25
2023/10/26 03:58:17;;;;;;;4.22;3.67;;;18.40;80.90;;;;;;4977974;28;20046;-25
2023/10/26 04:00:45;;;;;;;4.13;3.72;;;18.70;81.00;;;;;;4975830;28;20050;-25
2023/10/26 04:03:12;;;;;;;4.75;3.67;;;19.60;81.40;;;;;;4975477;28;20082;-25
2023/10/26 04:05:39;;;;;;;4.65;4.13;;;;;;;;;;4975566;28;20054;-26
2023/10/26 04:08:07;;;;;;;4.90;3.90;;;18.90;82.00;;;;;;4975443;28;20508;-25
2023/10/26 04:10:34;;;;;;;4.38;3.97;;;17.90;80.60;;;;;;4975767;28;20050;-25
2023/10/26 04:13:01;;;;;;;5.13;3.92;;;;;;;;;;4975299;28;20118;-26
2023/10/26 04:15:29;;;;;;;4.07;3.67;;;18.50;65.50;;;;;;4975685;28;20129;-25
2023/10/26 04:17:56;;;;;;;4.50;3.75;;;20.00;81.70;;;;;;4975314;28;20094;-25
2023/10/26 04:20:23;;;;;;;4.30;3.90;;;19.60;81.70;;;;;;4975050;28;20097;-25
2023/10/26 04:22:50;;;;;;;4.72;4.13;;;;;;;;;;4975615;28;20047;-25
2023/10/26 04:25:16;;;;;;;4.53;4.07;;;19.20;81.50;;;;;;4975152;28;20550;-25
2023/10/26 04:27:44;;;;;;;4.30;3.90;;;;;;;;;;4989385;28;20573;-27
2023/10/26 04:30:11;;;;;;;3.92;3.60;;;19.60;80.70;;;;;;4994821;28;20109;-25
2023/10/26 04:32:42;;;;;;;5.90;4.20;;;18.00;77.90;;;;;;4956082;28;20094;-25
2023/10/26 04:35:09;;;;;;;4.22;3.83;;;18.70;81.50;;;;;;4955646;28;20098;-25
2023/10/26 04:37:36;;;;;;;4.30;3.90;;;;;;;;;;4969605;28;20086;-26
2023/10/26 04:40:05;;;;;;;6.05;4.32;;;;;;;;;;4975184;28;20046;-25
2023/10/26 04:42:32;;;;;;;4.18;3.80;;;19.00;77.40;;;;;;4975076;28;20122;-25
2023/10/26 04:44:59;;;;;;;4.03;3.63;;;19.10;81.50;;;;;;4974881;28;20477;-25
2023/10/26 04:47:26;;;;;;;4.20;3.72;;;;;;;;;;4974873;28;20050;-26
2023/10/26 04:49:54;;;;;;;4.65;3.97;;;20.00;82.30;;;;;;4975050;28;20106;-27
2023/10/26 04:52:21;;;;;;;4.20;3.80;;;19.30;81.90;;;;;;4974598;28;20082;-27
2023/10/26 04:54:48;;;;;;;5.80;4.03;;;18.60;81.20;;;;;;4974991;28;20056;-27
2023/10/26 04:57:15;;;;;;;5.28;4.20;;;;;;;;;;4974655;28;20463;-27
2023/10/26 04:59:42;;;;;;;4.60;4.18;;;18.80;81.70;;;;;;4974693;28;20134;-27
2023/10/26 05:02:09;;;;;;;5.20;3.97;;;19.10;69.70;;;;;;4974662;28;20097;-27
2023/10/26 05:04:36;;;;;;;4.43;3.88;;;;;;;;;;4974797;28;20054;-27
2023/10/26 05:07:04;;;;;;;4.15;3.63;;;18.90;62.40;;;;;;4974658;28;20057;-27
2023/10/26 05:09:31;;;;;;;5.50;4.40;;;19.50;71.70;;;;;;4973917;28;20059;-27
2023/10/26 05:11:57;;;;;;;4.93;3.92;;;19.10;82.00;;;;;;4974363;28;20061;-26
2023/10/26 05:14:24;;;;;;;4.38;3.97;;;18.80;68.40;;;;;;4974166;28;20046;-26
2023/10/26 05:16:51;;;;;;;4.32;3.80;;;;;;;;;;4974388;28;20099;-26
2023/10/26 05:19:18;;;;;;;4.40;3.97;;;18.70;81.40;;;;;;4974191;28;20105;-26
2023/10/26 05:21:45;;;;;;;4.50;4.10;;;19.10;64.40;;;;;;4974463;28;20055;-26
2023/10/26 05:24:13;;;;;;;4.45;3.80;;;18.10;81.10;;;;;;4974169;28;20051;-26
2023/10/26 05:26:40;;;;;;;4.15;3.75;;;;;;;;;;4979963;28;20077;-26
2023/10/26 05:29:07;;;;;;;4.68;3.60;;;;;;;;;;4993012;28;20101;-26
2023/10/26 05:31:34;;;;;;;4.10;3.70;;;18.60;81.50;;;;;;4982642;28;20101;-26
2023/10/26 05:34:01;;;;;;;4.60;4.20;;;19.90;82.20;;;;;;4974207;28;20085;-26
2023/10/26 05:36:28;;;;;;;7.40;4.10;;;19.10;72.60;;;;;;4973744;28;20506;-26
2023/10/26 05:38:55;;;;;;;3.95;3.55;;;;;;;;;;4973945;28;20448;-26
2023/10/26 05:41:23;;;;;;;4.40;3.95;;;18.80;62.50;;;;;;4973781;28;20053;-26
2023/10/26 05:43:50;;;;;;;3.90;3.50;;;;;;;;;;4973661;28;20492;-26
2023/10/26 05:46:17;;;;;;;4.05;3.65;;;19.00;82.20;;;;;;4973949;28;20078;-26
2023/10/26 05:48:44;;;;;;;4.28;3.60;;;;;;;;;;4973886;28;20054;-26
2023/10/26 05:51:11;;;;;;;4.85;3.70;;;19.20;82.80;;;;;;4974053;28;20074;-26
2023/10/26 05:53:38;;;;;;;4.65;4.13;;;18.40;64.00;;;;;;4971696;28;20102;-26
2023/10/26 05:56:05;;;;;;;4.88;4.38;;;18.70;75.30;;;;;;4972086;28;20058;-25
2023/10/26 05:58:33;;;;;;;4.38;3.97;;;18.80;62.50;;;;;;4971771;28;20074;-26
2023/10/26 06:01:00;;;;;;;4.30;3.85;;;;;;;;;;4972760;28;20117;-26
2023/10/26 06:03:27;;;;;;;4.20;3.80;;;19.40;69.90;;;;;;4972342;28;20563;-26
2023/10/26 06:05:59;;;;;;;4.60;3.95;;;19.40;82.20;;;;;;4972868;28;20429;-26
2023/10/26 06:08:26;;;;;;;5.90;3.97;;;18.50;81.50;;;;;;4972453;28;20061;-25
2023/10/26 06:10:53;;;;;;;4.18;3.78;;;18.60;81.50;;;;;;4972545;28;20051;-25
2023/10/26 06:13:20;;;;;;;4.50;4.10;;;;;;;;;;4972314;28;20546;-25
2023/10/26 06:15:48;;;;;;;4.75;3.95;;;18.70;72.40;;;;;;4972821;28;20536;-28
2023/10/26 06:18:15;;;;;;;4.45;4.05;;;;;;;;;;4972354;28;20682;-28
2023/10/26 06:20:42;;;;;;;4.18;3.78;;;17.80;81.20;;;;;;4990975;28;20078;-28
2023/10/26 06:23:11;;;;;;;4.75;4.10;;;18.80;62.40;;;;;;4982114;28;20090;-28
2023/10/26 06:25:38;;;;;;;4.50;4.00;;;18.60;81.50;;;;;;4978597;28;20062;-28
2023/10/26 06:28:05;;;;;;;4.40;3.78;;;18.10;64.70;;;;;;4974583;28;20109;-28
2023/10/26 06:30:32;;;;;;;5.15;4.07;;;18.80;65.80;;;;;;4972436;28;20070;-28
2023/10/26 06:33:00;;;;;;;4.60;3.67;;;18.80;62.50;;;;;;4973130;28;20469;-29
2023/10/26 06:35:27;;;;;;;4.15;3.75;;;;;;;;;;4972768;28;20046;-29
2023/10/26 06:37:54;;;;;;;5.07;3.72;;;;;;;;;;4969094;28;20057;-30
2023/10/26 06:40:22;;;;;;;6.22;3.92;;;;;;;;;;4968713;28;20412;-28
2023/10/26 06:42:48;;;;;;;4.30;3.90;;;19.00;81.70;;;;;;4972843;28;20110;-28
2023/10/26 06:45:15;;;;;;;4.45;4.05;;;;;;;;;;4972352;28;20149;-28
2023/10/26 06:47:43;;;;;;;4.57;3.60;;;19.30;81.70;;;;;;4972818;28;20078;-28
2023/10/26 06:50:11;;;;;;;4.22;3.58;;;19.00;62.50;;;;;;4971894;28;20078;-27
2023/10/26 06:52:38;;;;;;;4.18;3.50;;;;;;;;;;4972749;28;20114;-26
2023/10/26 06:55:06;;;;;;;7.75;3.72;;;20.20;82.30;;;;;;4972660;28;20105;-25
2023/10/26 06:57:35;;;;;;;4.00;3.60;;;19.20;82.00;;;;;;4973086;28;20481;-26
2023/10/26 07:00:02;;;;;;;4.20;3.80;;;19.20;81.70;;;;;;4972892;28;20085;-26
2023/10/26 07:02:30;;;;;;;4.18;3.78;;;19.00;81.60;;;;;;4972995;28;20051;-25
2023/10/26 07:04:56;;;;;;;5.88;3.50;;;18.70;80.20;;;;;;4972884;28;20082;-25
2023/10/26 07:07:25;;;;;;;5.13;3.10;;;19.30;81.90;;;;;;4972775;28;20047;-25
2023/10/26 07:09:52;;;;;;;3.97;3.45;;;;;;;;;;4971964;28;20121;-26
2023/10/26 07:12:20;;;;;;;6.10;3.22;;;;;;;;;;4972430;28;20110;-26
2023/10/26 07:14:47;;;;;;;3.67;3.28;;;;;;;;;;4972784;28;20508;-26
2023/10/26 07:17:13;;;;;;;5.18;3.45;;;19.40;81.60;;;;;;4972973;28;20050;-25
2023/10/26 07:19:40;;;;;;;3.30;3.00;;;;;;;;;;4972557;28;20105;-27
2023/10/26 07:22:07;;;;;;;3.38;3.05;;;19.80;81.10;;;;;;4972809;28;20583;-26
2023/10/26 07:24:35;;;;;;;3.28;2.97;;;19.60;79.90;;;;;;4972789;28;20047;-25
2023/10/26 07:27:03;;;;;;;3.00;2.70;;;19.50;81.00;;;;;;4979351;28;20566;-26
2023/10/26 07:29:29;;;;;;;3.13;2.83;;;19.40;80.80;;;;;;4972238;28;20439;-25
2023/10/26 07:31:56;;;;;;;3.53;2.72;;;;;;;;;;4972201;28;20074;-26
2023/10/26 07:34:23;;;;;;;3.20;2.85;;;21.30;76.60;;;;;;4974489;28;20404;-26
2023/10/26 07:36:50;;;;;;;3.05;2.60;;;20.50;80.70;;;;;;4975058;28;20423;-26
2023/10/26 07:39:17;;;;;;;3.67;2.90;;;;;;;;;;4975061;28;20548;-27
2023/10/26 07:41:45;;;;;;;3.33;3.00;;;20.20;80.00;;;;;;4975904;28;20101;-25
2023/10/26 07:44:12;;;;;;;3.13;2.80;;;21.60;80.60;;;;;;4974842;28;20097;-27
2023/10/26 07:46:39;;;;;;;3.72;2.60;;;20.10;80.10;;;;;;4975155;28;20047;-27
2023/10/26 07:49:06;;;;;;;2.97;2.67;;;20.70;73.40;;;;;;4975281;28;20051;-27
2023/10/26 07:51:33;;;;;;;3.08;2.72;;;20.80;79.90;;;;;;4975314;28;20043;-28
2023/10/26 07:54:00;;;;;;;3.05;2.75;;;20.80;76.60;;;;;;4975627;28;20042;-28
2023/10/26 07:56:27;;;;;;;3.22;2.92;;;21.10;79.60;;;;;;4974433;28;20039;-29
2023/10/26 07:58:55;;;;;;;3.67;2.90;;;20.70;60.90;;;;;;4975403;28;20046;-27
2023/10/26 08:01:22;;;;;;;3.25;2.58;;;;;;;;;;4975191;28;20153;-27
2023/10/26 08:03:49;;;;;;;2.80;2.47;;;21.40;79.80;;;;;;4974895;28;20508;-28
2023/10/26 08:06:15;;;;;;;3.65;2.80;;;20.70;78.90;;;;;;4975387;28;20046;-28
2023/10/26 08:08:42;;;;;;;3.20;2.50;;;20.80;76.20;;;;;;4975110;28;20089;-28
2023/10/26 08:11:10;;;;;;;3.05;2.75;;;20.90;78.90;;;;;;4975530;28;20105;-28
2023/10/26 08:13:37;;;;;;;3.25;2.58;;;;;;;;;;4974706;28;20504;-28
2023/10/26 08:16:05;;;;;;;3.17;2.60;;;21.10;78.80;;;;;;4976531;28;20051;-28
2023/10/26 08:18:32;;;;;;;3.45;3.15;;;20.70;61.80;;;;;;4975205;28;20098;-28
2023/10/26 08:20:59;;;;;;;3.15;2.85;;;21.70;79.70;;;;;;4975289;28;20102;-28
2023/10/26 08:23:29;;;;;;;2.95;2.53;;;21.40;78.60;;;;;;4975544;28;20105;-28
2023/10/26 08:25:56;;;;;;;3.22;2.85;;;21.10;78.20;;;;;;4975336;28;20567;-28
2023/10/26 08:28:23;;;;;;;3.72;2.88;;;21.50;71.10;;;;;;4975259;28;20097;-28
2023/10/26 08:30:50;;;;;;;3.47;2.75;;;21.10;78.20;;;;;;4975072;28;20078;-28
2023/10/26 08:33:18;;;;;;;3.47;2.85;;;21.10;60.80;;;;;;4975440;28;20050;-28
2023/10/26 08:35:49;;;;;;;3.40;3.05;;;21.40;60.10;;;;;;4975340;28;20055;-27
2023/10/26 08:38:16;;;;;;;4.53;2.92;;;21.30;78.10;;;;;;4974918;28;20093;-28
2023/10/26 08:40:49;;;;;;;3.45;2.95;;;21.50;60.00;;;;;;4975095;28;20113;-29
2023/10/26 08:43:16;;;;;;;4.28;3.13;;;21.20;78.10;;;;;;4975077;28;20567;-28
2023/10/26 08:45:42;;;;;;;3.42;2.92;;;21.30;78.60;;;;;;4973514;28;20090;-27
2023/10/26 08:48:09;;;;;;;3.40;3.10;;;21.10;66.30;;;;;;4974277;28;20058;-27
2023/10/26 08:50:38;;;;;;;3.85;3.15;;;21.90;78.80;;;;;;4974841;28;20414;-27
2023/10/26 08:53:04;;;;;;;4.38;3.22;;;22.20;78.00;;;;;;4974368;28;20075;-27
2023/10/26 08:55:33;;;;;;;3.38;3.05;;;;;;;;;;4974785;28;20406;-29
2023/10/26 08:58:02;;;;;;;3.63;2.90;;;;;;;;;;4974628;28;20134;-27
2023/10/26 09:00:30;;;;;;;4.22;3.13;;;21.60;59.70;;;;;;4974252;28;20051;-27
2023/10/26 09:02:57;;;;;;;3.90;3.00;;;21.80;71.30;;;;;;4974211;28;20127;-27
2023/10/26 09:05:24;;;;;;;4.53;3.70;;;;;;;;;;4974625;28;20109;-27
2023/10/26 09:07:52;;;;;;;3.85;3.45;;;21.80;78.60;;;;;;4975763;28;20051;-27
2023/10/26 09:10:28;;;;;;;4.60;3.83;;;21.50;59.60;;;;;;4982743;28;20571;-28
2023/10/26 09:13:03;;;;;;;4.10;3.38;;;21.50;59.70;;;;;;4983431;28;20468;-27
2023/10/26 09:15:30;;;;;;;4.15;3.67;;;;;;;;;;4973351;28;20065;-29
2023/10/26 09:18:00;;;;;;;4.82;3.58;;;21.60;67.20;;;;;;4984778;28;20097;-28
2023/10/26 09:20:27;;;;;;;3.60;3.30;;;22.30;70.60;;;;;;4992728;28;20070;-27
2023/10/26 09:22:55;;;;;;;4.00;3.60;;;21.90;78.10;;;;;;4981653;28;20105;-27
2023/10/26 09:25:22;;;;;;;4.07;3.60;;;;;;;;;;4973425;28;20452;-28
2023/10/26 09:27:49;;;;;;;4.88;3.83;;;21.50;78.00;;;;;;4987405;28;20101;-27
2023/10/26 09:30:26;;;;;;;6.63;4.00;;;21.20;78.20;;;;;;4992249;28;20042;-27
2023/10/26 09:32:53;;;;;;;4.18;3.72;;;;;;;;;;4973158;28;20479;-28
2023/10/26 09:35:26;;;;;;;5.07;4.13;;;21.10;70.50;;;;;;4984540;28;20112;-29
2023/10/26 09:37:55;;;;;;;4.25;3.85;;;21.70;79.00;;;;;;4972964;28;20050;-27
2023/10/26 09:40:22;;;;;;;4.47;4.07;;;;;;;;;;4971802;28;20091;-32
2023/10/26 09:42:49;;;;;;;4.95;3.88;;;;;;;;;;4972511;28;20043;-28
2023/10/26 09:45:17;;;;;;;4.68;4.20;;;22.40;72.20;;;;;;4971242;28;20059;-28
2023/10/26 09:47:44;;;;;;;4.88;3.85;;;21.00;78.70;;;;;;4972635;28;20061;-27
2023/10/26 09:50:11;;;;;;;4.93;4.22;;;20.90;78.00;;;;;;4972767;28;20102;-27
2023/10/26 09:52:38;;;;;;;4.90;4.30;;;20.70;77.90;;;;;;4971789;28;20043;-27
2023/10/26 09:55:07;;;;;;;5.22;4.53;;;21.00;78.20;;;;;;4973044;28;20062;-27
2023/10/26 09:57:35;;;;;;;5.40;4.40;;;21.10;60.20;;;;;;4971930;28;20105;-28
2023/10/26 10:00:03;;;;;;;5.15;4.60;;;21.80;68.60;;;;;;4972611;28;20489;-28
2023/10/26 10:02:30;;;;;;;4.82;4.32;;;;;;;;;;4972156;28;20055;-28
2023/10/26 10:04:56;;;;;;;5.55;4.88;;;19.90;62.40;;;;;;4971596;28;20082;-28
2023/10/26 10:07:41;;;;;;;4.97;4.47;;;21.00;60.30;;;;;;4973314;28;20047;-29
2023/10/26 10:10:10;;;;;;;5.40;4.82;;;20.70;60.20;;;;;;4973466;28;20051;-28
2023/10/26 10:12:38;;;;;;;5.72;4.63;;;21.00;76.70;;;;;;4969429;28;20148;-27
2023/10/26 10:15:07;;;;;;;5.68;5.10;;;20.90;60.40;;;;;;4971844;28;20051;-29
2023/10/26 10:18:10;;;;;;;5.97;4.78;;;20.90;60.40;;;;;;4972230;28;20117;-29
2023/10/26 10:20:37;;;;;;;5.20;4.70;;;21.70;80.00;;;;;;4972799;28;20047;-27
2023/10/26 10:23:04;;;;;;;5.00;4.50;;;20.70;60.40;;;;;;4970661;28;20101;-28
2023/10/26 10:26:03;;;;;;;5.35;4.85;;;20.70;78.70;;;;;;4972764;28;20495;-30
2023/10/26 10:28:54;;;;;;;5.28;4.75;;;20.50;78.80;;;;;;4963460;28;20046;-30
2023/10/26 10:31:40;;;;;;;5.57;4.88;;;20.40;78.70;;;;;;4983434;28;20047;-30
2023/10/26 10:34:08;;;;;;;5.47;4.97;;;20.60;78.80;;;;;;4973215;28;20510;-30
2023/10/26 10:37:09;;;;;;;5.07;4.57;;;20.80;61.70;;;;;;4973075;28;20046;-30
2023/10/26 10:39:36;;;;;;;5.78;4.63;;;;;;;;;;4971601;28;20408;-29
2023/10/26 10:42:08;;;;;;;5.72;5.13;;;21.00;78.30;;;;;;4972858;28;20053;-30
2023/10/26 10:44:36;;;;;;;5.55;5.05;;;19.40;69.70;;;;;;4973126;28;20122;-30
2023/10/26 10:47:03;;;;;;;5.70;5.13;;;21.40;80.20;;;;;;4973104;28;20059;-30
2023/10/26 10:49:30;;;;;;;7.20;5.10;;;20.50;79.10;;;;;;4973041;28;20082;-30
2023/10/26 10:51:58;;;;;;;5.30;4.68;;;;;;;;;;4972984;28;20081;-30
2023/10/26 10:54:25;;;;;;;6.15;4.90;;;20.40;79.80;;;;;;4972868;28;20057;-30
2023/10/26 10:56:52;;;;;;;5.78;5.18;;;21.20;72.20;;;;;;4973259;28;20047;-32
2023/10/26 10:59:21;;;;;;;5.63;5.05;;;20.90;64.20;;;;;;4971926;28;20057;-30
2023/10/26 11:01:49;;;;;;;6.30;5.20;;;20.40;79.30;;;;;;4972991;28;20459;-30
2023/10/26 11:04:16;;;;;;;5.25;4.75;;;;;;;;;;4969979;28;20928;-29
2023/10/26 11:06:46;;;;;;;7.13;4.95;;;20.60;66.70;;;;;;4970981;28;20058;-30
2023/10/26 11:09:23;;;;;;;5.40;4.90;;;20.30;79.70;;;;;;4955318;28;20110;-31
2023/10/26 11:11:50;;;;;;;5.63;5.03;;;19.50;76.20;;;;;;4956607;28;20047;-29
2023/10/26 11:14:18;;;;;;;5.80;5.20;;;20.70;80.20;;;;;;4974902;28;20085;-27
2023/10/26 11:16:46;;;;;;;7.18;5.05;;;19.70;71.60;;;;;;4976064;28;20128;-27
2023/10/26 11:19:12;;;;;;;4.97;4.47;;;19.30;78.70;;;;;;4976347;28;20086;-27
2023/10/26 11:21:39;;;;;;;7.55;4.78;;;19.90;79.50;;;;;;4963658;28;20153;-27
2023/10/26 11:24:07;;;;;;;5.93;4.53;;;20.30;61.20;;;;;;4974976;28;20447;-28
2023/10/26 11:26:34;;;;;;;7.70;4.55;;;;;;;;;;4981432;28;20046;-28
2023/10/26 11:29:03;;;;;;;9.75;4.80;;;21.00;80.10;;;;;;4995549;28;20082;-27
2023/10/26 11:31:39;;;;;;;6.65;4.55;;;21.50;80.70;;;;;;4996053;28;20053;-28
2023/10/26 11:34:07;;;;;;;5.65;4.75;;;20.10;79.70;;;;;;4978836;28;20058;-28
2023/10/26 11:36:34;;;;;;;6.20;4.63;;;20.40;61.50;;;;;;4975444;28;20555;-29
2023/10/26 11:39:02;;;;;;;5.43;4.43;;;20.20;79.70;;;;;;4976090;28;20083;-28
2023/10/26 11:41:29;;;;;;;6.00;4.35;;;20.70;76.20;;;;;;4976259;28;20050;-28
2023/10/26 11:43:56;;;;;;;5.38;4.30;;;20.00;79.70;;;;;;4976333;28;20097;-29
2023/10/26 11:46:32;;;;;;;6.13;4.40;;;20.50;61.60;;;;;;4975951;28;20064;-28
2023/10/26 11:48:59;;;;;;;10.38;4.65;;;20.70;80.00;;;;;;4976185;28;20078;-29
2023/10/26 11:51:28;;;;;;;5.90;4.20;;;21.50;68.30;;;;;;4976024;28;20078;-29
2023/10/26 11:53:56;;;;;;;6.57;4.70;;;20.30;79.70;;;;;;4976127;28;20134;-29
2023/10/26 11:56:22;;;;;;;6.22;4.45;;;20.10;79.90;;;;;;4975909;28;20051;-30
2023/10/26 11:58:49;;;;;;;5.85;4.80;;;;;;;;;;4975524;28;20050;-29
2023/10/26 12:01:17;;;;;;;5.88;4.20;;;;;;;;;;4976049;28;20054;-29
2023/10/26 12:03:44;;;;;;;5.63;4.60;;;20.50;61.60;;;;;;4975750;28;20573;-29
2023/10/26 12:06:11;;;;;;;8.30;4.90;;;19.90;63.10;;;;;;4975979;28;20058;-29
2023/10/26 12:08:39;;;;;;;8.77;4.30;;;21.60;80.80;;;;;;4975436;28;20110;-29
2023/10/26 12:11:06;;;;;;;6.90;4.60;;;;;;;;;;4975537;28;20050;-29
2023/10/26 12:13:34;;;;;;;9.50;4.90;;;20.70;61.70;;;;;;4974709;28;20079;-29
2023/10/26 12:16:01;;;;;;;6.20;4.85;;;;;;;;;;4974624;28;20053;-28
2023/10/26 12:18:29;;;;;;;7.85;4.88;;;;;;;;;;4975311;28;20047;-28
2023/10/26 12:20:56;;;;;;;7.25;4.97;;;;;;;;;;4973883;28;20046;-28
2023/10/26 12:23:22;;;;;;;5.63;4.97;;;21.30;80.90;;;;;;4974677;28;20428;-29
2023/10/26 12:25:51;;;;;;;5.10;4.60;;;20.40;61.50;;;;;;4975083;28;20136;-30
2023/10/26 12:28:18;;;;;;;5.80;4.78;;;;;;;;;;4975240;28;20116;-30
2023/10/26 12:30:45;;;;;;;6.82;5.03;;;20.40;79.70;;;;;;4973776;28;20459;-30
2023/10/26 12:33:13;;;;;;;5.32;4.53;;;20.10;70.20;;;;;;4972656;28;20530;-29
2023/10/26 12:35:40;;;;;;;5.28;4.78;;;20.20;63.10;;;;;;4974430;28;20093;-30
2023/10/26 12:38:07;;;;;;;9.02;5.13;;;22.40;62.70;;;;;;4974401;28;20054;-30
2023/10/26 12:40:34;;;;;;;7.60;4.88;;;;;;;;;;4974538;28;20074;-29
2023/10/26 12:43:03;;;;;;;9.38;5.05;;;20.10;74.90;;;;;;4974826;28;20046;-30
2023/10/26 12:45:30;;;;;;;6.32;4.85;;;19.90;80.70;;;;;;4975394;28;20117;-31
2023/10/26 12:47:57;;;;;;;12.07;4.80;;;19.80;79.90;;;;;;4975302;28;20051;-31
2023/10/26 12:50:24;;;;;;;5.90;5.25;;;20.30;80.60;;;;;;4974956;28;20121;-31
2023/10/26 12:52:51;;;;;;;6.78;4.88;;;20.20;78.60;;;;;;4975138;28;20054;-29
2023/10/26 12:55:20;;;;;;;6.30;4.80;;;20.40;80.70;;;;;;4974802;28;20051;-31
2023/10/26 12:57:47;;;;;;;9.80;5.00;;;19.40;80.00;;;;;;4974826;28;20062;-31
2023/10/26 13:00:16;;;;;;;6.80;5.05;;;19.90;80.30;;;;;;4974731;28;20060;-31
2023/10/26 13:02:43;;;;;;;9.02;5.35;;;21.10;70.40;;;;;;4974817;28;20070;-30
2023/10/26 13:05:10;;;;;;;9.23;6.45;;;19.90;80.00;;;;;;4974823;28;20113;-29
2023/10/26 13:07:36;;;;;;;9.05;6.00;;;20.10;80.90;;;;;;4965435;28;20110;-29
2023/10/26 13:10:03;;;;;;;10.90;6.40;;;19.90;65.40;;;;;;4955170;28;20047;-29
2023/10/26 13:12:30;;;;;;;8.27;6.50;;;20.30;79.40;;;;;;4954224;28;20090;-29
2023/10/26 13:14:57;;;;;;;9.32;6.22;;;;;;;;;;4966535;28;20121;-28
2023/10/26 13:17:25;;;;;;;9.45;5.93;;;20.10;61.20;;;;;;4973624;28;20113;-29